Rodman, Iowa
Current Conditions -  °F | °C
As of 1:35 AM on Sunday 23 Nov 2014 (Local Time) from KAXA Reporting Station
Overcast Overcast  
Wind Chill: 52°   Ceiling: 800
Heat Index: 52°   Visibility: 9mi
Dew Point: 52°   Wind: 16mph
Humidity: 100%   Direction: 190°S
Pressure: 29.51"   Gusts: NA
Location:  43.0372°N, 94.5003°W
Report Text: KAXA 230735Z AUTO 19014KT 9SM OVC008 11/11 A2951 RMK AO2
Loading
Personal Weather Stations






























Interactive Weather Map New forecast layout! Learn more

10-Day Weather Forecast

Advertisements
Track Severe Weather on mobile